createdAt,value
2018-09-19T00:00:56.497Z,99.90
2018-09-19T00:05:00.693Z,99.90
2018-09-19T00:09:07.094Z,99.90
2018-09-19T00:13:11.428Z,99.90
2018-09-19T00:17:15.608Z,99.90
2018-09-19T00:21:20.025Z,99.90
2018-09-19T00:25:24.233Z,99.90
2018-09-19T00:29:28.515Z,99.90
2018-09-19T00:33:32.713Z,99.90
2018-09-19T00:37:37.061Z,99.90
2018-09-19T00:41:41.268Z,99.90
2018-09-19T00:45:45.533Z,99.90
2018-09-19T00:49:49.703Z,99.90
2018-09-19T00:53:54.952Z,99.90
2018-09-19T00:57:59.444Z,99.90
2018-09-19T01:02:03.669Z,99.90
2018-09-19T01:06:07.896Z,99.90
2018-09-19T01:10:12.137Z,99.90
2018-09-19T01:14:16.310Z,99.90
2018-09-19T01:18:20.590Z,99.90
2018-09-19T01:22:24.837Z,99.90
2018-09-19T01:26:29.164Z,99.90
2018-09-19T01:30:33.364Z,99.90
2018-09-19T01:34:37.583Z,99.90
2018-09-19T01:38:41.775Z,99.90
2018-09-19T01:42:46.045Z,99.90
2018-09-19T01:46:50.235Z,99.90
2018-09-19T01:50:54.477Z,99.90
2018-09-19T01:54:58.678Z,99.90
2018-09-19T01:59:03.064Z,99.90
2018-09-19T02:03:07.289Z,99.90
2018-09-19T02:07:11.506Z,99.90
2018-09-19T02:11:15.765Z,99.90
2018-09-19T02:15:20.164Z,99.90
2018-09-19T02:19:24.381Z,99.90
2018-09-19T02:23:28.628Z,99.90
2018-09-19T02:27:33.966Z,99.90
2018-09-19T02:31:38.163Z,99.90
2018-09-19T02:35:42.422Z,99.90
2018-09-19T02:39:46.635Z,99.90
2018-09-19T02:43:51.364Z,99.90
2018-09-19T02:47:55.618Z,99.90
2018-09-19T02:52:00.353Z,99.90
2018-09-19T02:56:04.609Z,99.90
2018-09-19T03:00:09.002Z,99.90
2018-09-19T03:04:17.120Z,99.90
2018-09-19T03:08:21.337Z,99.90
2018-09-19T03:12:25.666Z,99.90
2018-09-19T03:16:29.969Z,99.90
2018-09-19T03:20:34.194Z,99.90
2018-09-19T03:24:38.393Z,99.90
2018-09-19T03:28:42.648Z,99.90
2018-09-19T03:32:46.817Z,99.90
2018-09-19T03:36:51.124Z,99.90
2018-09-19T03:40:55.332Z,99.90
2018-09-19T03:44:59.574Z,99.90
2018-09-19T03:49:03.785Z,99.90
2018-09-19T03:53:08.034Z,99.90
2018-09-19T03:57:12.301Z,99.90
2018-09-19T04:01:16.571Z,99.90
2018-09-19T04:05:20.824Z,99.90
2018-09-19T04:09:25.013Z,99.90
2018-09-19T04:13:29.248Z,99.90
2018-09-19T04:17:33.513Z,99.90
2018-09-19T04:21:42.150Z,99.90
2018-09-19T04:25:46.397Z,99.90
2018-09-19T04:29:50.716Z,99.90
2018-09-19T04:33:54.908Z,99.90
2018-09-19T04:37:59.853Z,99.90
2018-09-19T04:42:04.227Z,99.90
2018-09-19T04:46:08.407Z,99.90
2018-09-19T04:50:12.646Z,99.90
2018-09-19T04:54:16.831Z,99.90
2018-09-19T04:58:21.104Z,99.90
2018-09-19T05:02:25.283Z,99.90
2018-09-19T05:06:29.601Z,99.90
2018-09-19T05:10:33.821Z,99.90
2018-09-19T05:14:38.563Z,99.90
2018-09-19T05:18:42.908Z,99.90
2018-09-19T05:22:47.697Z,99.90
2018-09-19T05:26:51.917Z,99.90
2018-09-19T05:30:56.277Z,99.90
2018-09-19T05:35:00.567Z,99.90
2018-09-19T05:39:06.207Z,99.90
2018-09-19T05:43:10.441Z,99.90
2018-09-19T05:47:14.648Z,99.90
2018-09-19T05:51:18.891Z,99.90
2018-09-19T05:55:23.115Z,99.90
2018-09-19T05:59:27.319Z,99.90
2018-09-19T06:03:31.619Z,99.90
2018-09-19T06:07:35.792Z,99.90
2018-09-19T06:11:40.447Z,99.90
2018-09-19T06:15:44.640Z,99.90
2018-09-19T06:19:49.353Z,99.90
2018-09-19T06:23:53.571Z,99.90
2018-09-19T06:27:57.887Z,99.90
2018-09-19T06:32:03.113Z,99.90
2018-09-19T06:36:07.109Z,99.90
2018-09-19T06:40:11.505Z,99.90
2018-09-19T06:44:16.124Z,99.90
2018-09-19T06:48:20.440Z,98.70
2018-09-19T06:52:24.695Z,95.90
2018-09-19T06:56:28.879Z,96.90
2018-09-19T07:00:33.117Z,94.00
2018-09-19T07:04:37.485Z,94.00
2018-09-19T07:08:41.665Z,94.00
2018-09-19T07:12:45.889Z,94.40
2018-09-19T07:16:50.107Z,93.60
2018-09-19T07:20:54.411Z,94.30
2018-09-19T07:24:58.713Z,93.70
2018-09-19T07:29:02.909Z,93.40
2018-09-19T07:33:07.196Z,93.30
2018-09-19T07:37:11.477Z,91.00
2018-09-19T07:41:15.666Z,90.30
2018-09-19T07:45:19.903Z,90.20
2018-09-19T07:49:24.167Z,87.50
2018-09-19T07:53:34.121Z,85.50
2018-09-19T07:57:38.395Z,81.80
2018-09-19T08:01:42.627Z,81.30
2018-09-19T08:05:46.929Z,79.00
2018-09-19T08:09:51.190Z,77.10
2018-09-19T08:13:55.456Z,76.50
2018-09-19T08:17:59.754Z,71.00
2018-09-19T08:22:04.014Z,73.60
2018-09-19T08:26:08.224Z,69.60
2018-09-19T08:30:12.465Z,67.60
2018-09-19T08:34:16.641Z,65.80
2018-09-19T08:38:21.137Z,64.80
2018-09-19T08:42:25.413Z,63.00
2018-09-19T08:46:29.625Z,61.20
2018-09-19T08:50:33.925Z,60.30
2018-09-19T08:54:38.136Z,60.50
2018-09-19T08:58:42.440Z,58.20
2018-09-19T09:02:46.608Z,58.90
2018-09-19T09:06:50.798Z,56.70
2018-09-19T09:10:55.025Z,57.40
2018-09-19T09:14:59.339Z,57.90
2018-09-19T09:19:03.552Z,56.50
2018-09-19T09:23:07.862Z,56.00
2018-09-19T09:27:12.177Z,55.30
2018-09-19T09:31:16.486Z,56.60
2018-09-19T09:35:20.697Z,52.70
2018-09-19T09:39:24.892Z,52.50
2018-09-19T09:43:29.140Z,54.50
2018-09-19T09:47:33.325Z,51.70
2018-09-19T09:51:37.536Z,52.10
2018-09-19T09:55:41.733Z,48.80
2018-09-19T09:59:46.042Z,47.70
2018-09-19T10:03:50.248Z,47.10
2018-09-19T10:07:54.642Z,47.30
2018-09-19T10:11:59.976Z,42.00
2018-09-19T10:16:05.550Z,42.30
2018-09-19T10:20:11.543Z,41.70
2018-09-19T10:24:16.452Z,41.90
2018-09-19T10:28:22.315Z,42.70
2018-09-19T10:32:28.493Z,42.40
2018-09-19T10:36:33.748Z,45.30
2018-09-19T10:40:40.373Z,47.00
2018-09-19T10:44:46.217Z,44.20
2018-09-19T10:48:50.756Z,43.80
2018-09-19T10:52:55.145Z,39.40
2018-09-19T10:57:01.013Z,36.50
2018-09-19T11:01:06.902Z,37.60
2018-09-19T11:05:12.250Z,35.50
2018-09-19T11:13:17.396Z,30.70
2018-09-19T11:17:22.648Z,30.70
2018-09-19T11:21:34.344Z,30.90
2018-09-19T11:25:39.465Z,28.90
2018-09-19T11:29:45.829Z,29.90
2018-09-19T11:33:51.146Z,31.50
2018-09-19T11:37:55.486Z,33.90
2018-09-19T11:42:00.507Z,32.30
2018-09-19T11:46:04.850Z,33.10
2018-09-19T11:50:09.205Z,31.60
2018-09-19T11:54:13.511Z,32.20
2018-09-19T11:58:18.340Z,35.10
2018-09-19T12:02:22.570Z,37.40
2018-09-19T12:06:26.810Z,34.30
2018-09-19T12:10:31.137Z,32.60
2018-09-19T12:14:35.513Z,29.70
2018-09-19T12:18:39.735Z,28.90
2018-09-19T12:22:44.072Z,30.30
2018-09-19T12:26:48.731Z,31.40
2018-09-19T12:30:53.327Z,30.10
2018-09-19T12:34:57.613Z,30.40
2018-09-19T12:39:01.968Z,36.70
2018-09-19T12:43:06.246Z,36.60
2018-09-19T12:47:10.630Z,37.40
2018-09-19T12:51:15.225Z,41.30
2018-09-19T12:55:19.931Z,44.40
2018-09-19T12:59:24.755Z,45.70
2018-09-19T13:03:29.064Z,49.90
2018-09-19T13:07:33.382Z,50.00
2018-09-19T13:11:37.925Z,50.50
2018-09-19T13:15:42.376Z,51.70
2018-09-19T13:19:46.650Z,51.30
2018-09-19T13:23:50.958Z,53.00
2018-09-19T13:27:55.173Z,52.50
2018-09-19T13:31:59.562Z,51.10
2018-09-19T13:36:03.908Z,48.50
2018-09-19T13:40:08.147Z,44.80
2018-09-19T13:44:15.255Z,44.20
2018-09-19T13:48:20.084Z,42.30
2018-09-19T13:52:27.868Z,41.30
2018-09-19T13:56:32.213Z,41.10
2018-09-19T14:00:36.500Z,42.60
2018-09-19T14:04:40.778Z,37.30
2018-09-19T14:08:45.157Z,37.20
2018-09-19T14:12:49.656Z,36.10
2018-09-19T14:16:54.029Z,35.40
2018-09-19T14:20:58.223Z,32.70
2018-09-19T14:25:02.597Z,33.40
2018-09-19T14:29:07.054Z,33.80
2018-09-19T14:33:11.509Z,35.80
2018-09-19T14:37:16.176Z,32.90
2018-09-19T14:41:21.017Z,33.70
2018-09-19T14:45:25.651Z,36.80
2018-09-19T14:49:30.138Z,40.60
2018-09-19T14:53:34.379Z,42.40
2018-09-19T14:57:38.688Z,49.30
2018-09-19T15:01:42.912Z,50.90
2018-09-19T15:05:53.719Z,52.60
2018-09-19T15:09:58.096Z,55.20
2018-09-19T15:14:02.425Z,54.50
2018-09-19T15:18:06.690Z,55.90
2018-09-19T15:22:10.941Z,57.20
2018-09-19T15:26:15.217Z,57.70
2018-09-19T15:30:19.551Z,59.10
2018-09-19T15:34:23.777Z,63.20
2018-09-19T15:38:28.122Z,64.70
2018-09-19T15:42:32.363Z,63.30
2018-09-19T15:46:37.182Z,62.70
2018-09-19T15:50:42.006Z,65.40
2018-09-19T15:54:46.253Z,67.20
2018-09-19T15:58:52.413Z,69.20
2018-09-19T16:02:56.785Z,70.40
2018-09-19T16:07:01.475Z,73.00
2018-09-19T16:11:05.671Z,74.80
2018-09-19T16:15:09.881Z,74.30
2018-09-19T16:19:14.488Z,75.70
2018-09-19T16:23:18.726Z,77.30
2018-09-19T16:27:23.116Z,78.60
2018-09-19T16:31:27.606Z,79.50
2018-09-19T16:35:32.081Z,81.60
2018-09-19T16:39:36.317Z,82.10
2018-09-19T16:43:40.580Z,82.60
2018-09-19T16:47:44.828Z,87.40
2018-09-19T16:51:49.062Z,90.30
2018-09-19T16:55:53.432Z,90.70
2018-09-19T16:59:57.702Z,91.50
2018-09-19T17:04:01.929Z,94.00
2018-09-19T17:08:06.364Z,95.90
2018-09-19T17:12:10.700Z,94.70
2018-09-19T17:16:14.900Z,95.90
2018-09-19T17:20:19.159Z,97.20
2018-09-19T17:24:23.369Z,98.90
2018-09-19T17:28:28.052Z,99.50
2018-09-19T17:32:32.389Z,99.90
2018-09-19T17:36:36.610Z,99.90
2018-09-19T17:40:40.943Z,99.90
2018-09-19T17:44:45.131Z,99.90
2018-09-19T17:48:49.488Z,99.90
2018-09-19T17:52:53.742Z,99.90
2018-09-19T17:56:58.170Z,99.90
2018-09-19T18:01:02.567Z,99.90
2018-09-19T18:05:07.169Z,99.90
2018-09-19T18:09:11.429Z,99.90
2018-09-19T18:13:15.958Z,99.90
2018-09-19T18:17:20.181Z,99.90
2018-09-19T18:21:24.511Z,99.90
2018-09-19T18:25:28.860Z,99.90
2018-09-19T18:29:33.155Z,99.90
2018-09-19T18:33:37.514Z,99.90
2018-09-19T18:37:41.878Z,99.90
2018-09-19T18:41:46.404Z,99.90
2018-09-19T18:45:50.884Z,99.90
2018-09-19T18:49:55.195Z,99.90
2018-09-19T18:53:59.569Z,99.90
2018-09-19T18:58:04.075Z,99.90
2018-09-19T19:02:08.284Z,99.90
2018-09-19T19:06:12.566Z,99.90
2018-09-19T19:10:18.488Z,99.90
2018-09-19T19:14:23.197Z,99.90
2018-09-19T19:18:27.904Z,99.90
2018-09-19T19:22:32.798Z,99.90
2018-09-19T19:26:37.082Z,99.90
2018-09-19T19:30:41.486Z,99.90
2018-09-19T19:34:45.678Z,99.90
2018-09-19T19:38:50.417Z,99.90
2018-09-19T19:42:55.124Z,99.90
2018-09-19T19:46:59.629Z,99.90
2018-09-19T19:51:03.925Z,99.90
2018-09-19T19:55:08.196Z,99.90
2018-09-19T19:59:12.541Z,99.90
2018-09-19T20:03:16.796Z,99.90
2018-09-19T20:07:21.069Z,99.90
2018-09-19T20:11:25.506Z,99.90
2018-09-19T20:15:29.777Z,99.90
2018-09-19T20:19:34.014Z,99.90
2018-09-19T20:23:38.452Z,99.90
2018-09-19T20:27:43.032Z,99.90
2018-09-19T20:31:47.353Z,99.90
2018-09-19T20:35:51.521Z,99.90
2018-09-19T20:39:55.984Z,99.90
2018-09-19T20:44:00.296Z,99.90
2018-09-19T20:48:04.600Z,99.90
2018-09-19T20:52:08.868Z,99.90
2018-09-19T20:56:13.277Z,99.90
2018-09-19T21:00:17.552Z,99.90
2018-09-19T21:04:21.966Z,99.90
2018-09-19T21:08:26.155Z,99.90
2018-09-19T21:12:30.407Z,99.90
2018-09-19T21:16:34.616Z,99.90
2018-09-19T21:20:38.852Z,99.90
2018-09-19T21:24:43.053Z,99.90
2018-09-19T21:28:47.281Z,99.90
2018-09-19T21:32:51.491Z,99.90
2018-09-19T21:36:55.733Z,99.90
2018-09-19T21:40:59.913Z,99.90
2018-09-19T21:45:04.352Z,99.90
2018-09-19T21:49:08.656Z,99.90
2018-09-19T21:53:12.928Z,99.90
2018-09-19T21:57:17.205Z,99.90
2018-09-19T22:01:26.393Z,99.90
2018-09-19T22:05:30.725Z,99.90
2018-09-19T22:09:35.103Z,99.90
2018-09-19T22:13:39.418Z,99.90
2018-09-19T22:17:43.716Z,99.90
2018-09-19T22:21:47.929Z,99.90
2018-09-19T22:25:52.197Z,99.90
2018-09-19T22:29:56.439Z,99.90
2018-09-19T22:34:00.884Z,99.90
2018-09-19T22:38:05.113Z,99.90
2018-09-19T22:42:09.408Z,99.90
2018-09-19T22:46:13.928Z,99.90
2018-09-19T22:50:18.241Z,99.90
2018-09-19T22:54:22.452Z,99.90
2018-09-19T22:58:26.942Z,99.90
2018-09-19T23:02:31.177Z,99.90
2018-09-19T23:06:35.507Z,99.90
2018-09-19T23:10:39.713Z,99.90
2018-09-19T23:14:43.905Z,99.90
2018-09-19T23:18:48.144Z,99.90
2018-09-19T23:22:52.408Z,99.90
2018-09-19T23:26:56.610Z,99.90
2018-09-19T23:31:00.940Z,99.90
2018-09-19T23:35:05.177Z,99.90
2018-09-19T23:39:10.334Z,99.90
2018-09-19T23:43:14.532Z,99.90
2018-09-19T23:47:18.792Z,99.90
2018-09-19T23:51:23.036Z,99.90
2018-09-19T23:55:27.286Z,99.90
2018-09-19T23:59:31.567Z,99.90
